createdAt,value
2023-01-13T00:01:13.398Z,6.51
2023-01-13T00:03:40.646Z,6.63
2023-01-13T00:06:08.415Z,6.50
2023-01-13T00:08:35.800Z,6.51
2023-01-13T00:11:02.419Z,6.55
2023-01-13T00:13:29.218Z,6.67
2023-01-13T00:16:07.616Z,6.77
2023-01-13T00:18:34.569Z,6.98
2023-01-13T00:21:23.583Z,6.90
2023-01-13T00:23:52.024Z,7.03
2023-01-13T00:26:21.852Z,6.68
2023-01-13T00:28:48.866Z,6.72
2023-01-13T00:31:21.067Z,6.85
2023-01-13T00:33:49.279Z,6.82
2023-01-13T00:36:16.793Z,6.70
2023-01-13T00:38:43.935Z,6.60
2023-01-13T00:41:13.377Z,6.63
2023-01-13T00:43:40.776Z,6.45
2023-01-13T00:46:10.032Z,6.68
2023-01-13T00:48:37.902Z,6.72
2023-01-13T00:51:24.903Z,6.66
2023-01-13T00:53:52.057Z,6.80
2023-01-13T00:56:34.212Z,6.91
2023-01-13T00:59:05.973Z,6.79
2023-01-13T01:01:33.035Z,6.75
2023-01-13T01:03:59.703Z,6.89
2023-01-13T01:06:27.769Z,6.90
2023-01-13T01:08:55.888Z,6.95
2023-01-13T01:11:29.140Z,6.82
2023-01-13T01:13:57.308Z,6.83
2023-01-13T01:16:26.341Z,6.96
2023-01-13T01:18:55.316Z,7.25
2023-01-13T01:21:23.623Z,7.34
2023-01-13T01:23:50.186Z,7.51
2023-01-13T01:26:22.826Z,7.48
2023-01-13T01:28:49.746Z,7.63
2023-01-13T01:31:25.603Z,7.63
2023-01-13T01:33:53.223Z,7.54
2023-01-13T01:36:21.271Z,7.48
2023-01-13T01:38:48.951Z,7.69
2023-01-13T01:41:18.848Z,7.73
2023-01-13T01:44:06.099Z,7.61
2023-01-13T01:46:37.578Z,7.55
2023-01-13T01:49:04.147Z,7.66
2023-01-13T01:51:35.738Z,7.63
2023-01-13T01:54:05.243Z,7.67
2023-01-13T01:56:33.671Z,7.54
2023-01-13T01:59:00.481Z,7.46
2023-01-13T02:01:27.165Z,7.37
2023-01-13T02:04:01.769Z,7.38
2023-01-13T02:06:30.213Z,7.37
2023-01-13T02:08:58.201Z,7.27
2023-01-13T02:11:53.725Z,7.30
2023-01-13T02:14:26.963Z,7.18
2023-01-13T02:17:28.621Z,7.28
2023-01-13T02:20:19.757Z,7.37
2023-01-13T02:23:35.418Z,7.30
2023-01-13T02:26:17.275Z,7.25
2023-01-13T02:29:30.874Z,7.35
2023-01-13T02:32:06.604Z,7.19
2023-01-13T02:34:45.858Z,7.29
2023-01-13T02:37:19.610Z,7.21
2023-01-13T02:39:57.574Z,7.25
2023-01-13T02:42:58.676Z,7.27
2023-01-13T02:45:38.452Z,7.20
2023-01-13T02:48:08.791Z,7.22
2023-01-13T02:50:47.605Z,7.36
2023-01-13T02:53:30.730Z,7.19
2023-01-13T02:55:59.338Z,7.41
2023-01-13T02:58:29.618Z,7.29
2023-01-13T03:00:56.819Z,7.30
2023-01-13T03:03:23.859Z,7.28
2023-01-13T03:05:55.991Z,6.98
2023-01-13T03:08:39.745Z,7.06
2023-01-13T03:11:08.421Z,7.16
2023-01-13T03:13:43.960Z,7.00
2023-01-13T03:16:18.040Z,6.95
2023-01-13T03:18:54.026Z,7.03
2023-01-13T03:21:26.915Z,6.97
2023-01-13T03:24:03.177Z,7.00
2023-01-13T03:26:29.749Z,7.02
2023-01-13T03:29:20.865Z,7.07
2023-01-13T03:32:22.056Z,6.96
2023-01-13T03:35:19.203Z,7.02
2023-01-13T03:37:51.071Z,7.03
2023-01-13T03:40:24.789Z,7.05
2023-01-13T03:43:16.187Z,7.02
2023-01-13T03:45:46.063Z,7.22
2023-01-13T03:48:16.668Z,7.16
2023-01-13T03:50:50.931Z,7.26
2023-01-13T03:53:29.806Z,7.27
2023-01-13T03:56:03.661Z,7.22
2023-01-13T03:58:35.729Z,7.12
2023-01-13T04:01:14.881Z,7.01
2023-01-13T04:03:52.543Z,7.00
2023-01-13T04:06:48.507Z,7.14
2023-01-13T04:09:18.418Z,7.02
2023-01-13T04:11:53.822Z,7.09
2023-01-13T04:14:23.344Z,7.05
2023-01-13T04:16:50.201Z,7.23
2023-01-13T04:19:16.827Z,7.14
2023-01-13T04:21:43.889Z,7.08
2023-01-13T04:24:10.530Z,7.12
2023-01-13T04:26:37.384Z,7.02
2023-01-13T04:29:03.929Z,6.98
2023-01-13T04:31:30.634Z,7.01
2023-01-13T04:33:57.259Z,7.00
2023-01-13T04:36:27.744Z,6.93
2023-01-13T04:38:55.064Z,6.75
2023-01-13T04:41:21.947Z,6.90
2023-01-13T04:43:48.544Z,6.64
2023-01-13T04:46:15.303Z,6.76
2023-01-13T04:48:41.925Z,6.86
2023-01-13T04:51:08.615Z,6.81
2023-01-13T04:53:35.254Z,6.79
2023-01-13T04:56:01.917Z,6.87
2023-01-13T04:58:28.480Z,6.74
2023-01-13T05:00:55.578Z,6.59
2023-01-13T05:03:24.458Z,6.69
2023-01-13T05:05:52.279Z,6.80
2023-01-13T05:08:18.803Z,6.78
2023-01-13T05:10:45.411Z,6.70
2023-01-13T05:13:30.508Z,6.72
2023-01-13T05:16:16.322Z,6.82
2023-01-13T05:18:43.032Z,6.87
2023-01-13T05:21:29.763Z,6.90
2023-01-13T05:24:14.971Z,6.75
2023-01-13T05:26:41.850Z,6.91
2023-01-13T05:29:08.665Z,6.88
2023-01-13T05:31:35.368Z,6.88
2023-01-13T05:34:02.142Z,6.70
2023-01-13T05:36:28.667Z,6.91
2023-01-13T05:38:55.262Z,6.72
2023-01-13T05:41:40.353Z,6.67
2023-01-13T05:44:06.892Z,6.71
2023-01-13T05:46:33.553Z,6.68
2023-01-13T05:49:01.091Z,6.86
2023-01-13T05:51:27.925Z,6.80
2023-01-13T05:53:54.588Z,6.69
2023-01-13T05:56:21.266Z,6.54
2023-01-13T05:58:47.825Z,6.70
2023-01-13T06:01:14.390Z,6.77
2023-01-13T06:03:41.269Z,6.72
2023-01-13T06:06:09.057Z,6.74
2023-01-13T06:08:38.033Z,6.68
2023-01-13T06:11:06.324Z,6.65
2023-01-13T06:13:32.932Z,6.65
2023-01-13T06:16:00.007Z,6.83
2023-01-13T06:18:27.816Z,6.58
2023-01-13T06:20:54.540Z,6.48
2023-01-13T06:23:21.155Z,6.57
2023-01-13T06:26:12.302Z,6.58
2023-01-13T06:28:38.887Z,6.68
2023-01-13T06:31:08.778Z,6.73
2023-01-13T06:33:47.511Z,6.73
2023-01-13T06:36:19.657Z,6.75
2023-01-13T06:38:49.952Z,6.70
2023-01-13T06:41:17.294Z,6.77
2023-01-13T06:43:44.002Z,6.70
2023-01-13T06:46:10.644Z,6.86
2023-01-13T06:48:37.242Z,6.71
2023-01-13T06:51:04.779Z,6.95
2023-01-13T06:53:31.870Z,6.66
2023-01-13T06:55:58.528Z,6.78
2023-01-13T06:58:25.114Z,6.66
2023-01-13T07:00:51.979Z,6.68
2023-01-13T07:03:19.657Z,6.71
2023-01-13T07:05:53.562Z,6.71
2023-01-13T07:08:20.941Z,6.45
2023-01-13T07:10:47.648Z,6.52
2023-01-13T07:13:32.879Z,6.59
2023-01-13T07:16:02.304Z,6.61
2023-01-13T07:18:31.844Z,6.63
2023-01-13T07:21:00.745Z,6.54
2023-01-13T07:23:29.947Z,6.47
2023-01-13T07:25:57.320Z,6.56
2023-01-13T07:28:25.306Z,6.68
2023-01-13T07:30:52.130Z,6.58
2023-01-13T07:33:18.830Z,6.50
2023-01-13T07:35:46.490Z,6.61
2023-01-13T07:38:13.380Z,6.59
2023-01-13T07:40:41.010Z,6.48
2023-01-13T07:43:26.596Z,6.46
2023-01-13T07:45:58.590Z,6.49
2023-01-13T07:48:26.692Z,6.41
2023-01-13T07:50:54.141Z,6.47
2023-01-13T07:53:21.455Z,6.38
2023-01-13T07:55:48.560Z,6.45
2023-01-13T07:58:15.120Z,6.37
2023-01-13T08:00:41.763Z,6.47
2023-01-13T08:03:08.408Z,6.53
2023-01-13T08:05:35.597Z,6.59
2023-01-13T08:08:02.564Z,6.58
2023-01-13T08:10:29.655Z,6.70
2023-01-13T08:13:14.773Z,6.52
2023-01-13T08:15:41.489Z,6.66
2023-01-13T08:18:08.111Z,6.78
2023-01-13T08:20:34.950Z,6.95
2023-01-13T08:23:01.882Z,7.16
2023-01-13T08:25:30.127Z,7.02
2023-01-13T08:27:57.341Z,6.95
2023-01-13T08:30:24.173Z,7.17
2023-01-13T08:32:50.876Z,7.00
2023-01-13T08:35:18.277Z,7.15
2023-01-13T08:37:45.947Z,7.42
2023-01-13T08:40:13.921Z,7.64
2023-01-13T08:42:40.573Z,7.46
2023-01-13T08:45:08.199Z,7.47
2023-01-13T08:47:35.150Z,7.26
2023-01-13T08:50:01.908Z,7.29
2023-01-13T08:52:29.493Z,7.13
2023-01-13T08:54:56.251Z,7.03
2023-01-13T08:57:22.832Z,7.08
2023-01-13T08:59:49.433Z,7.01
2023-01-13T09:02:19.051Z,6.97
2023-01-13T09:04:46.805Z,7.07
2023-01-13T09:07:14.007Z,7.14
2023-01-13T09:09:40.669Z,7.22
2023-01-13T09:12:26.600Z,7.31
2023-01-13T09:14:53.189Z,7.19
2023-01-13T09:17:19.880Z,7.36
2023-01-13T09:19:46.507Z,7.26
2023-01-13T09:22:16.390Z,7.36
2023-01-13T09:24:43.552Z,7.33
2023-01-13T09:27:11.903Z,7.20
2023-01-13T09:29:38.607Z,7.19
2023-01-13T09:32:06.031Z,7.10
2023-01-13T09:34:52.023Z,7.50
2023-01-13T09:37:18.612Z,7.33
2023-01-13T09:39:45.273Z,7.37
2023-01-13T09:42:45.728Z,7.45
2023-01-13T09:45:18.267Z,7.23
2023-01-13T09:47:52.664Z,7.26
2023-01-13T09:50:28.526Z,7.38
2023-01-13T09:52:55.749Z,7.37
2023-01-13T09:55:43.141Z,7.40
2023-01-13T09:58:16.885Z,7.47
2023-01-13T10:00:51.635Z,7.76
2023-01-13T10:03:21.341Z,7.35
2023-01-13T10:05:56.516Z,7.19
2023-01-13T10:08:28.466Z,7.25
2023-01-13T10:10:58.435Z,7.08
2023-01-13T10:13:30.693Z,6.98
2023-01-13T10:16:12.652Z,6.94
2023-01-13T10:18:54.086Z,7.18
2023-01-13T10:21:26.798Z,7.18
2023-01-13T10:24:04.070Z,7.16
2023-01-13T10:26:30.629Z,7.18
2023-01-13T10:28:57.408Z,7.31
2023-01-13T10:31:25.353Z,7.26
2023-01-13T10:33:59.563Z,7.02
2023-01-13T10:36:26.610Z,7.07
2023-01-13T10:39:17.525Z,7.18
2023-01-13T10:41:45.090Z,7.33
2023-01-13T10:44:19.261Z,7.67
2023-01-13T10:46:54.544Z,7.87
2023-01-13T10:49:36.447Z,8.29
2023-01-13T10:52:06.197Z,8.06
2023-01-13T10:54:34.901Z,8.13
2023-01-13T10:57:16.135Z,8.06
2023-01-13T10:59:43.018Z,7.99
2023-01-13T11:02:26.256Z,7.95
2023-01-13T11:04:53.389Z,8.04
2023-01-13T11:07:41.939Z,7.94
2023-01-13T11:10:27.222Z,8.22
2023-01-13T11:12:54.394Z,8.18
2023-01-13T11:15:25.170Z,8.18
2023-01-13T11:18:05.144Z,8.18
2023-01-13T11:20:39.041Z,8.45
2023-01-13T11:23:34.811Z,8.34
2023-01-13T11:26:12.846Z,8.34
2023-01-13T11:28:52.237Z,7.98
2023-01-13T11:31:33.362Z,8.07
2023-01-13T11:34:07.211Z,7.77
2023-01-13T11:36:55.499Z,7.99
2023-01-13T11:39:39.216Z,7.90
2023-01-13T11:42:28.684Z,7.96
2023-01-13T11:45:21.719Z,7.49
2023-01-13T11:47:55.712Z,7.69
2023-01-13T11:50:29.286Z,7.61
2023-01-13T11:53:28.351Z,7.60
2023-01-13T11:56:27.279Z,7.54
2023-01-13T11:59:19.630Z,7.64
2023-01-13T12:02:13.457Z,7.73
2023-01-13T12:04:49.135Z,7.34
2023-01-13T12:07:23.352Z,7.44
2023-01-13T12:10:13.589Z,7.46
2023-01-13T12:12:54.186Z,7.19
2023-01-13T12:15:21.280Z,7.55
2023-01-13T12:18:11.796Z,7.53
2023-01-13T12:20:50.488Z,7.82
2023-01-13T12:23:29.354Z,7.62
2023-01-13T12:26:05.347Z,7.57
2023-01-13T12:29:07.011Z,7.83
2023-01-13T12:31:37.881Z,7.94
2023-01-13T12:34:10.292Z,8.15
2023-01-13T12:37:04.823Z,7.96
2023-01-13T12:39:43.513Z,8.48
2023-01-13T12:42:51.580Z,8.65
2023-01-13T12:45:28.719Z,8.61
2023-01-13T12:47:56.305Z,8.90
2023-01-13T12:50:22.973Z,8.59
2023-01-13T12:52:51.383Z,8.44
2023-01-13T12:55:24.938Z,8.09
2023-01-13T12:58:06.798Z,8.29
2023-01-13T13:00:39.555Z,8.23
2023-01-13T13:03:12.532Z,8.35
2023-01-13T13:05:48.879Z,8.46
2023-01-13T13:08:19.100Z,8.45
2023-01-13T13:11:00.749Z,8.55
2023-01-13T13:13:48.541Z,8.59
2023-01-13T13:16:27.441Z,8.78
2023-01-13T13:19:22.933Z,8.84
2023-01-13T13:22:14.608Z,9.03
2023-01-13T13:25:02.498Z,9.04
2023-01-13T13:27:31.674Z,8.77
2023-01-13T13:30:04.077Z,8.73
2023-01-13T13:33:07.547Z,8.49
2023-01-13T13:35:59.135Z,8.40
2023-01-13T13:38:59.583Z,8.53
2023-01-13T13:41:46.152Z,8.64
2023-01-13T13:44:35.623Z,8.37
2023-01-13T13:47:04.367Z,8.32
2023-01-13T13:49:51.829Z,8.37
2023-01-13T13:52:38.274Z,8.49
2023-01-13T13:55:25.971Z,8.61
2023-01-13T13:57:55.346Z,8.66
2023-01-13T14:00:33.150Z,8.65
2023-01-13T14:03:06.456Z,8.70
2023-01-13T14:05:35.115Z,9.08
2023-01-13T14:08:03.109Z,9.41
2023-01-13T14:10:41.525Z,9.38
2023-01-13T14:13:22.265Z,8.96
2023-01-13T14:16:03.968Z,8.93
2023-01-13T14:18:45.103Z,8.83
2023-01-13T14:21:19.438Z,8.81
2023-01-13T14:24:10.665Z,9.06
2023-01-13T14:26:37.747Z,9.19
2023-01-13T14:29:04.561Z,9.41
2023-01-13T14:31:31.891Z,9.21
2023-01-13T14:34:02.916Z,9.26
2023-01-13T14:36:51.353Z,9.23
2023-01-13T14:39:17.942Z,9.23
2023-01-13T14:41:48.117Z,9.23
2023-01-13T14:44:36.969Z,9.25
2023-01-13T14:47:16.269Z,9.38
2023-01-13T14:50:04.787Z,9.29
2023-01-13T14:52:35.308Z,9.34
2023-01-13T14:55:09.302Z,9.17
2023-01-13T14:57:38.018Z,8.89
2023-01-13T15:00:13.731Z,8.91
2023-01-13T15:02:46.946Z,8.77
2023-01-13T15:05:19.929Z,8.84
2023-01-13T15:07:50.815Z,8.88
2023-01-13T15:10:20.629Z,8.71
2023-01-13T15:12:50.900Z,8.59
2023-01-13T15:15:25.461Z,8.60
2023-01-13T15:17:52.480Z,8.74
2023-01-13T15:20:24.256Z,8.75
2023-01-13T15:22:53.949Z,8.78
2023-01-13T15:25:21.077Z,8.82
2023-01-13T15:27:50.851Z,8.61
2023-01-13T15:30:26.550Z,8.24
2023-01-13T15:32:55.130Z,8.20
2023-01-13T15:35:23.325Z,7.99
2023-01-13T15:37:50.870Z,7.83
2023-01-13T15:40:20.407Z,7.93
2023-01-13T15:43:06.585Z,7.80
2023-01-13T15:45:53.988Z,7.80
2023-01-13T15:48:24.953Z,7.81
2023-01-13T15:50:51.970Z,7.69
2023-01-13T15:53:19.048Z,7.78
2023-01-13T15:55:52.025Z,7.70
2023-01-13T15:58:21.492Z,7.65
2023-01-13T16:00:48.149Z,7.52
2023-01-13T16:03:16.245Z,7.69
2023-01-13T16:05:43.939Z,7.64
2023-01-13T16:08:18.963Z,7.74
2023-01-13T16:10:46.108Z,7.57
2023-01-13T16:13:13.231Z,7.80
2023-01-13T16:15:47.405Z,7.75
2023-01-13T16:18:19.407Z,7.81
2023-01-13T16:20:46.705Z,7.65
2023-01-13T16:23:13.775Z,7.61
2023-01-13T16:25:43.073Z,7.51
2023-01-13T16:28:18.757Z,7.54
2023-01-13T16:30:45.905Z,7.55
2023-01-13T16:33:12.614Z,7.66
2023-01-13T16:35:43.857Z,7.68
2023-01-13T16:38:25.941Z,7.74
2023-01-13T16:40:52.600Z,7.84
2023-01-13T16:43:19.434Z,7.85
2023-01-13T16:45:47.301Z,7.84
2023-01-13T16:48:20.576Z,7.85
2023-01-13T16:50:47.541Z,7.70
2023-01-13T16:53:14.257Z,7.77
2023-01-13T16:55:42.207Z,7.69
2023-01-13T16:58:19.193Z,7.57
2023-01-13T17:00:47.661Z,7.41
2023-01-13T17:03:15.529Z,7.43
2023-01-13T17:05:44.402Z,7.42
2023-01-13T17:08:19.159Z,7.54
2023-01-13T17:10:47.267Z,7.54
2023-01-13T17:13:16.949Z,7.44
2023-01-13T17:15:45.238Z,7.15
2023-01-13T17:18:13.427Z,6.99
2023-01-13T17:20:40.318Z,7.00
2023-01-13T17:23:06.911Z,6.94
2023-01-13T17:25:33.485Z,6.95
2023-01-13T17:28:00.050Z,6.83
2023-01-13T17:30:26.838Z,6.76
2023-01-13T17:32:53.572Z,6.84
2023-01-13T17:35:24.678Z,6.98
2023-01-13T17:37:52.644Z,6.87
2023-01-13T17:40:19.522Z,6.77
2023-01-13T17:42:46.130Z,6.70
2023-01-13T17:45:12.804Z,6.64
2023-01-13T17:47:39.376Z,6.58
2023-01-13T17:50:06.395Z,6.53
2023-01-13T17:52:34.393Z,6.51
2023-01-13T17:55:01.049Z,6.36
2023-01-13T17:57:27.924Z,6.48
2023-01-13T17:59:54.606Z,6.58
2023-01-13T18:02:21.317Z,6.70
2023-01-13T18:04:47.932Z,6.76
2023-01-13T18:07:14.536Z,6.83
2023-01-13T18:09:41.067Z,6.80
2023-01-13T18:12:07.731Z,6.80
2023-01-13T18:14:34.502Z,6.76
2023-01-13T18:17:01.178Z,6.85
2023-01-13T18:19:46.427Z,7.04
2023-01-13T18:22:32.549Z,7.11
2023-01-13T18:25:18.088Z,7.37
2023-01-13T18:27:44.855Z,7.13
2023-01-13T18:30:12.583Z,7.27
2023-01-13T18:32:39.810Z,7.37
2023-01-13T18:35:10.427Z,7.40
2023-01-13T18:37:42.206Z,7.39
2023-01-13T18:40:11.424Z,7.22
2023-01-13T18:42:59.240Z,7.11
2023-01-13T18:45:31.311Z,6.85
2023-01-13T18:48:01.449Z,6.80
2023-01-13T18:50:28.517Z,6.72
2023-01-13T18:52:55.447Z,6.83
2023-01-13T18:55:22.185Z,6.74
2023-01-13T18:57:49.117Z,7.01
2023-01-13T19:00:19.138Z,6.95
2023-01-13T19:02:47.557Z,6.73
2023-01-13T19:05:14.639Z,6.58
2023-01-13T19:07:43.200Z,6.42
2023-01-13T19:10:10.804Z,6.33
2023-01-13T19:12:37.415Z,6.30
2023-01-13T19:15:04.518Z,6.28
2023-01-13T19:17:33.733Z,6.36
2023-01-13T19:20:00.617Z,6.25
2023-01-13T19:22:30.960Z,6.22
2023-01-13T19:24:58.263Z,6.20
2023-01-13T19:27:25.630Z,6.25
2023-01-13T19:29:53.726Z,6.24
2023-01-13T19:32:21.907Z,6.27
2023-01-13T19:34:50.721Z,6.30
2023-01-13T19:37:17.426Z,6.24
2023-01-13T19:39:44.319Z,6.26
2023-01-13T19:42:32.110Z,6.29
2023-01-13T19:45:17.436Z,6.22
2023-01-13T19:47:45.631Z,6.31
2023-01-13T19:50:13.081Z,6.26
2023-01-13T19:52:39.901Z,6.26
2023-01-13T19:55:06.953Z,6.24
2023-01-13T19:57:33.523Z,6.23
2023-01-13T20:00:00.256Z,6.34
2023-01-13T20:02:31.561Z,6.41
2023-01-13T20:05:00.556Z,6.37
2023-01-13T20:07:29.663Z,6.45
2023-01-13T20:09:57.027Z,6.49
2023-01-13T20:12:25.794Z,6.54
2023-01-13T20:14:52.601Z,6.58
2023-01-13T20:17:22.054Z,6.64
2023-01-13T20:19:48.688Z,6.81
2023-01-13T20:22:15.750Z,6.78
2023-01-13T20:24:42.715Z,6.96
2023-01-13T20:27:09.670Z,6.87
2023-01-13T20:29:36.284Z,6.89
2023-01-13T20:32:02.988Z,6.89
2023-01-13T20:34:30.000Z,6.78
2023-01-13T20:36:56.822Z,6.93
2023-01-13T20:39:26.530Z,6.86
2023-01-13T20:42:12.635Z,6.79
2023-01-13T20:44:39.483Z,6.79
2023-01-13T20:47:06.927Z,6.69
2023-01-13T20:49:36.207Z,6.53
2023-01-13T20:52:09.185Z,6.38
2023-01-13T20:54:40.497Z,6.50
2023-01-13T20:57:09.895Z,6.68
2023-01-13T20:59:37.634Z,6.25
2023-01-13T21:02:05.781Z,6.21
2023-01-13T21:04:32.331Z,6.15
2023-01-13T21:06:59.043Z,6.24
2023-01-13T21:09:27.380Z,6.57
2023-01-13T21:12:12.936Z,6.36
2023-01-13T21:14:59.542Z,6.31
2023-01-13T21:17:44.889Z,6.32
2023-01-13T21:20:13.886Z,6.35
2023-01-13T21:22:44.701Z,6.16
2023-01-13T21:25:12.522Z,5.94
2023-01-13T21:27:39.362Z,5.79
2023-01-13T21:30:06.522Z,5.59
2023-01-13T21:32:33.216Z,5.72
2023-01-13T21:34:59.848Z,5.83
2023-01-13T21:37:26.353Z,5.56
2023-01-13T21:39:52.924Z,5.70
2023-01-13T21:42:37.922Z,5.63
2023-01-13T21:45:23.226Z,5.47
2023-01-13T21:47:49.944Z,5.41
2023-01-13T21:50:21.954Z,5.48
2023-01-13T21:52:52.361Z,5.44
2023-01-13T21:55:21.059Z,5.37
2023-01-13T21:57:49.176Z,5.32
2023-01-13T22:00:19.518Z,5.22
2023-01-13T22:02:47.271Z,5.25
2023-01-13T22:05:15.791Z,5.21
2023-01-13T22:07:42.940Z,5.27
2023-01-13T22:10:15.213Z,5.29
2023-01-13T22:12:43.356Z,5.37
2023-01-13T22:15:12.414Z,5.30
2023-01-13T22:17:40.062Z,5.14
2023-01-13T22:20:07.607Z,5.20
2023-01-13T22:22:36.563Z,5.01
2023-01-13T22:25:06.980Z,5.09
2023-01-13T22:27:39.635Z,5.01
2023-01-13T22:30:25.119Z,4.89
2023-01-13T22:32:51.828Z,4.69
2023-01-13T22:35:18.475Z,4.83
2023-01-13T22:37:45.018Z,4.84
2023-01-13T22:40:12.343Z,4.87
2023-01-13T22:42:40.691Z,4.90
2023-01-13T22:45:10.687Z,4.97
2023-01-13T22:47:37.741Z,4.99
2023-01-13T22:50:06.477Z,4.95
2023-01-13T22:52:34.583Z,4.95
2023-01-13T22:55:01.995Z,4.92
2023-01-13T22:57:38.831Z,4.94
2023-01-13T23:00:14.900Z,4.69
2023-01-13T23:02:41.744Z,4.91
2023-01-13T23:05:08.824Z,4.89
2023-01-13T23:07:36.253Z,4.77
2023-01-13T23:10:03.942Z,4.90
2023-01-13T23:12:30.487Z,4.89
2023-01-13T23:14:57.251Z,5.03
2023-01-13T23:17:23.803Z,4.95
2023-01-13T23:19:50.323Z,4.85
2023-01-13T23:22:17.077Z,4.81
2023-01-13T23:24:43.678Z,4.83
2023-01-13T23:27:10.266Z,4.93
2023-01-13T23:29:36.889Z,4.87
2023-01-13T23:32:03.654Z,4.93
2023-01-13T23:34:30.675Z,4.83
2023-01-13T23:36:57.442Z,4.98
2023-01-13T23:39:24.739Z,5.07
2023-01-13T23:41:51.399Z,5.12
2023-01-13T23:44:18.132Z,5.27
2023-01-13T23:46:44.702Z,5.39
2023-01-13T23:49:11.282Z,5.40
2023-01-13T23:51:38.409Z,5.43
2023-01-13T23:54:05.247Z,5.42
2023-01-13T23:56:31.999Z,5.46
2023-01-13T23:58:59.356Z,5.48
